createdAt,value
2023-04-11T00:00:13.348Z,0.68
2023-04-11T00:02:40.672Z,0.50
2023-04-11T00:05:08.630Z,0.50
2023-04-11T00:07:37.853Z,0.40
2023-04-11T00:10:07.126Z,0.30
2023-04-11T00:12:34.348Z,0.47
2023-04-11T00:15:01.749Z,0.50
2023-04-11T00:17:31.555Z,0.30
2023-04-11T00:20:08.147Z,0.40
2023-04-11T00:22:35.928Z,0.43
2023-04-11T00:25:03.367Z,0.40
2023-04-11T00:27:30.637Z,0.30
2023-04-11T00:29:58.180Z,0.40
2023-04-11T00:32:25.800Z,0.38
2023-04-11T00:34:53.374Z,0.40
2023-04-11T00:37:23.406Z,0.40
2023-04-11T00:39:52.910Z,0.30
2023-04-11T00:42:20.772Z,0.70
2023-04-11T00:44:48.333Z,0.30
2023-04-11T00:47:15.867Z,0.50
2023-04-11T00:49:43.208Z,0.35
2023-04-11T00:52:12.860Z,0.50
2023-04-11T00:54:40.354Z,0.45
2023-04-11T00:57:08.574Z,0.40
2023-04-11T00:59:36.171Z,0.50
2023-04-11T01:02:03.638Z,0.40
2023-04-11T01:04:31.040Z,0.30
2023-04-11T01:07:06.365Z,0.40
2023-04-11T01:09:34.719Z,0.40
2023-04-11T01:12:03.079Z,0.40
2023-04-11T01:14:30.679Z,0.40
2023-04-11T01:16:58.683Z,0.32
2023-04-11T01:19:27.069Z,0.40
2023-04-11T01:21:56.634Z,0.47
2023-04-11T01:24:24.061Z,0.30
2023-04-11T01:26:52.048Z,0.40
2023-04-11T01:29:19.409Z,0.25
2023-04-11T01:31:46.659Z,0.38
2023-04-11T01:34:15.498Z,0.30
2023-04-11T01:36:43.249Z,0.40
2023-04-11T01:39:10.813Z,0.30
2023-04-11T01:41:38.195Z,0.22
2023-04-11T01:44:05.952Z,0.30
2023-04-11T01:46:33.381Z,0.20
2023-04-11T01:49:03.849Z,1.40
2023-04-11T01:51:31.535Z,0.30
2023-04-11T01:53:58.793Z,0.28
2023-04-11T01:56:26.098Z,0.20
2023-04-11T01:58:53.628Z,0.20
2023-04-11T02:01:21.674Z,0.20
2023-04-11T02:03:49.195Z,0.20
2023-04-11T02:06:17.195Z,0.20
2023-04-11T02:08:44.641Z,0.20
2023-04-11T02:11:11.978Z,0.20
2023-04-11T02:13:39.229Z,0.20
2023-04-11T02:16:07.783Z,0.20
2023-04-11T02:18:35.040Z,0.47
2023-04-11T02:21:02.582Z,0.20
2023-04-11T02:23:29.841Z,0.25
2023-04-11T02:25:57.051Z,0.20
2023-04-11T02:28:24.260Z,0.30
2023-04-11T02:30:51.923Z,0.20
2023-04-11T02:33:19.460Z,0.20
2023-04-11T02:35:47.138Z,0.20
2023-04-11T02:38:14.766Z,0.20
2023-04-11T02:40:42.216Z,0.65
2023-04-11T02:43:09.413Z,0.40
2023-04-11T02:45:36.754Z,0.45
2023-04-11T02:48:04.059Z,0.50
2023-04-11T02:50:31.707Z,0.50
2023-04-11T02:52:58.914Z,0.43
2023-04-11T02:55:27.087Z,0.50
2023-04-11T02:57:54.348Z,0.40
2023-04-11T03:00:22.070Z,0.30
2023-04-11T03:02:49.591Z,0.30
2023-04-11T03:05:16.941Z,0.30
2023-04-11T03:07:44.729Z,0.30
2023-04-11T03:10:12.016Z,0.40
2023-04-11T03:12:39.282Z,0.30
2023-04-11T03:15:06.707Z,0.50
2023-04-11T03:17:34.581Z,0.40
2023-04-11T03:20:01.833Z,0.50
2023-04-11T03:22:29.079Z,0.40
2023-04-11T03:24:56.374Z,0.43
2023-04-11T03:27:23.614Z,0.28
2023-04-11T03:29:50.819Z,0.55
2023-04-11T03:32:18.058Z,0.60
2023-04-11T03:34:45.342Z,0.50
2023-04-11T03:37:12.559Z,0.70
2023-04-11T03:39:39.740Z,0.57
2023-04-11T03:42:07.047Z,0.52
2023-04-11T03:44:34.248Z,0.45
2023-04-11T03:47:01.713Z,0.38
2023-04-11T03:49:28.984Z,0.43
2023-04-11T03:51:56.305Z,0.45
2023-04-11T03:54:23.513Z,0.40
2023-04-11T03:56:50.723Z,0.40
2023-04-11T03:59:17.913Z,0.40
2023-04-11T04:01:45.200Z,0.32
2023-04-11T04:04:12.493Z,0.32
2023-04-11T04:06:39.841Z,0.30
2023-04-11T04:09:07.121Z,0.35
2023-04-11T04:11:34.351Z,0.40
2023-04-11T04:14:02.328Z,0.30
2023-04-11T04:16:29.609Z,0.32
2023-04-11T04:18:56.829Z,0.45
2023-04-11T04:21:26.738Z,0.40
2023-04-11T04:23:54.241Z,0.40
2023-04-11T04:26:25.104Z,0.30
2023-04-11T04:28:54.034Z,0.30
2023-04-11T04:31:25.617Z,0.30
2023-04-11T04:33:53.165Z,0.30
2023-04-11T04:36:20.430Z,0.28
2023-04-11T04:38:48.292Z,0.40
2023-04-11T04:41:15.761Z,0.30
2023-04-11T04:43:43.249Z,0.40
2023-04-11T04:46:11.218Z,0.35
2023-04-11T04:48:38.515Z,0.25
2023-04-11T04:51:06.702Z,0.60
2023-04-11T04:53:34.923Z,0.93
2023-04-11T04:56:02.545Z,0.30
2023-04-11T04:58:29.787Z,0.30
2023-04-11T05:00:57.371Z,0.32
2023-04-11T05:03:24.903Z,0.20
2023-04-11T05:05:52.334Z,0.30
2023-04-11T05:08:22.681Z,0.30
2023-04-11T05:10:49.953Z,0.40
2023-04-11T05:13:17.182Z,0.40
2023-04-11T05:15:51.384Z,0.60
2023-04-11T05:18:18.647Z,0.32
2023-04-11T05:20:46.456Z,0.45
2023-04-11T05:23:13.968Z,0.40
2023-04-11T05:25:41.386Z,0.57
2023-04-11T05:28:08.715Z,0.60
2023-04-11T05:30:35.930Z,0.80
2023-04-11T05:33:03.233Z,0.57
2023-04-11T05:35:30.606Z,0.70
2023-04-11T05:37:58.397Z,0.57
2023-04-11T05:40:25.726Z,0.50
2023-04-11T05:42:52.939Z,0.75
2023-04-11T05:45:20.223Z,0.57
2023-04-11T05:47:47.450Z,0.80
2023-04-11T05:50:15.173Z,0.82
2023-04-11T05:52:42.483Z,0.80
2023-04-11T05:55:09.991Z,0.80
2023-04-11T05:57:37.220Z,0.70
2023-04-11T06:00:16.431Z,0.70
2023-04-11T06:02:44.214Z,1.20
2023-04-11T06:05:12.207Z,0.95
2023-04-11T06:07:40.214Z,0.93
2023-04-11T06:10:07.931Z,0.75
2023-04-11T06:12:35.171Z,0.88
2023-04-11T06:15:02.562Z,0.98
2023-04-11T06:17:29.993Z,0.80
2023-04-11T06:19:57.214Z,0.90
2023-04-11T06:22:24.445Z,1.00
2023-04-11T06:24:51.631Z,1.55
2023-04-11T06:27:18.867Z,1.00
2023-04-11T06:29:46.087Z,1.00
2023-04-11T06:32:13.383Z,0.98
2023-04-11T06:34:40.630Z,1.00
2023-04-11T06:37:08.386Z,1.17
2023-04-11T06:39:36.228Z,1.52
2023-04-11T06:42:04.041Z,1.30
2023-04-11T06:44:31.887Z,0.70
2023-04-11T06:46:59.340Z,1.00
2023-04-11T06:49:28.456Z,1.17
2023-04-11T06:51:56.156Z,1.02
2023-04-11T06:54:23.810Z,0.93
2023-04-11T06:56:51.029Z,0.90
2023-04-11T06:59:22.328Z,1.15
2023-04-11T07:01:50.749Z,1.40
2023-04-11T07:04:18.169Z,1.30
2023-04-11T07:06:46.361Z,1.30
2023-04-11T07:09:13.656Z,0.98
2023-04-11T07:11:40.991Z,1.20
2023-04-11T07:14:08.241Z,1.00
2023-04-11T07:16:35.674Z,1.52
2023-04-11T07:19:03.292Z,1.33
2023-04-11T07:21:32.274Z,0.95
2023-04-11T07:24:00.860Z,0.80
2023-04-11T07:26:32.617Z,1.40
2023-04-11T07:29:00.906Z,1.10
2023-04-11T07:31:28.174Z,0.90
2023-04-11T07:33:55.665Z,0.85
2023-04-11T07:36:23.236Z,1.10
2023-04-11T07:38:50.585Z,1.00
2023-04-11T07:41:17.861Z,1.00
2023-04-11T07:43:45.586Z,1.20
2023-04-11T07:46:15.209Z,0.85
2023-04-11T07:48:43.143Z,1.67
2023-04-11T07:51:10.422Z,1.00
2023-04-11T07:53:37.720Z,0.93
2023-04-11T07:56:05.143Z,0.80
2023-04-11T07:58:32.458Z,0.85
2023-04-11T08:00:59.922Z,1.23
2023-04-11T08:03:28.236Z,0.98
2023-04-11T08:05:56.313Z,1.00
2023-04-11T08:08:23.674Z,0.95
2023-04-11T08:10:52.171Z,1.10
2023-04-11T08:13:19.881Z,0.98
2023-04-11T08:15:47.116Z,0.95
2023-04-11T08:18:16.395Z,1.00
2023-04-11T08:20:43.686Z,0.80
2023-04-11T08:23:11.311Z,0.75
2023-04-11T08:25:39.231Z,0.90
2023-04-11T08:28:06.646Z,0.90
2023-04-11T08:30:34.051Z,0.70
2023-04-11T08:33:01.755Z,1.13
2023-04-11T08:35:29.099Z,1.27
2023-04-11T08:37:56.372Z,1.02
2023-04-11T08:40:25.185Z,0.98
2023-04-11T08:42:59.961Z,1.25
2023-04-11T08:45:27.427Z,0.98
2023-04-11T08:47:55.009Z,1.58
2023-04-11T08:50:22.280Z,0.90
2023-04-11T08:52:50.136Z,0.85
2023-04-11T08:55:17.367Z,1.20
2023-04-11T08:57:44.670Z,1.10
2023-04-11T09:00:14.905Z,0.90
2023-04-11T09:02:56.519Z,1.08
2023-04-11T09:05:33.672Z,1.50
2023-04-11T09:08:03.446Z,0.90
2023-04-11T09:10:30.675Z,0.95
2023-04-11T09:12:58.149Z,1.20
2023-04-11T09:15:27.892Z,0.80
2023-04-11T09:17:58.240Z,1.02
2023-04-11T09:20:30.269Z,1.00
2023-04-11T09:23:01.750Z,0.80
2023-04-11T09:25:28.989Z,0.80
2023-04-11T09:28:09.732Z,0.60
2023-04-11T09:30:37.329Z,1.10
2023-04-11T09:33:19.790Z,0.90
2023-04-11T09:35:48.701Z,0.70
2023-04-11T09:38:27.716Z,1.08
2023-04-11T09:40:54.980Z,0.80
2023-04-11T09:43:22.257Z,1.35
2023-04-11T09:45:54.528Z,0.73
2023-04-11T09:48:29.348Z,0.65
2023-04-11T09:51:04.815Z,0.80
2023-04-11T09:53:32.239Z,0.82
2023-04-11T09:55:59.514Z,1.75
2023-04-11T09:58:27.143Z,0.98
2023-04-11T10:00:55.307Z,0.70
2023-04-11T10:03:23.841Z,1.10
2023-04-11T10:05:53.441Z,0.60
2023-04-11T10:08:23.852Z,0.63
2023-04-11T10:10:52.949Z,0.88
2023-04-11T10:13:39.370Z,0.80
2023-04-11T10:16:09.789Z,0.88
2023-04-11T10:18:37.283Z,0.80
2023-04-11T10:21:05.579Z,0.95
2023-04-11T10:23:52.775Z,0.60
2023-04-11T10:26:20.059Z,1.10
2023-04-11T10:28:47.363Z,0.90
2023-04-11T10:31:17.648Z,0.80
2023-04-11T10:34:05.230Z,1.02
2023-04-11T10:36:52.360Z,0.75
2023-04-11T10:39:39.544Z,0.60
2023-04-11T10:42:36.269Z,0.77
2023-04-11T10:45:20.080Z,0.98
2023-04-11T10:47:59.404Z,0.82
2023-04-11T10:50:29.348Z,0.80
2023-04-11T10:52:57.219Z,0.60
2023-04-11T10:55:25.004Z,0.50
2023-04-11T10:58:08.557Z,0.57
2023-04-11T11:00:50.778Z,0.70
2023-04-11T11:03:19.304Z,0.80
2023-04-11T11:05:46.995Z,0.60
2023-04-11T11:08:14.333Z,0.70
2023-04-11T11:10:43.092Z,0.90
2023-04-11T11:13:10.888Z,0.60
2023-04-11T11:15:38.493Z,0.93
2023-04-11T11:18:06.501Z,0.90
2023-04-11T11:20:33.879Z,0.60
2023-04-11T11:23:05.589Z,0.93
2023-04-11T11:25:33.393Z,0.50
2023-04-11T11:28:04.967Z,0.70
2023-04-11T11:30:32.466Z,0.75
2023-04-11T11:32:59.861Z,0.77
2023-04-11T11:35:27.456Z,0.50
2023-04-11T11:37:55.046Z,0.50
2023-04-11T11:40:22.692Z,0.65
2023-04-11T11:42:50.886Z,0.70
2023-04-11T11:47:56.682Z,0.82
2023-04-11T11:50:28.510Z,0.68
2023-04-11T11:52:57.049Z,0.70
2023-04-11T11:55:24.586Z,0.50
2023-04-11T11:57:51.896Z,0.40
2023-04-11T12:00:29.200Z,0.70
2023-04-11T12:02:57.224Z,0.60
2023-04-11T12:05:25.392Z,0.70
2023-04-11T12:07:55.866Z,0.52
2023-04-11T12:10:23.105Z,0.40
2023-04-11T12:12:54.026Z,0.60
2023-04-11T12:15:22.792Z,0.70
2023-04-11T12:17:51.316Z,0.60
2023-04-11T12:20:22.717Z,0.70
2023-04-11T12:22:50.993Z,0.50
2023-04-11T12:25:19.582Z,0.88
2023-04-11T12:27:47.198Z,0.47
2023-04-11T12:30:17.769Z,0.65
2023-04-11T12:32:45.608Z,0.60
2023-04-11T12:35:13.509Z,1.27
2023-04-11T12:37:41.235Z,0.50
2023-04-11T12:40:12.757Z,0.75
2023-04-11T12:45:11.793Z,0.82
2023-04-11T12:47:39.173Z,0.50
2023-04-11T12:50:07.257Z,0.60
2023-04-11T12:52:34.982Z,0.85
2023-04-11T12:55:02.309Z,0.70
2023-04-11T12:57:29.549Z,0.88
2023-04-11T12:59:56.904Z,0.60
2023-04-11T13:02:24.268Z,0.65
2023-04-11T13:04:55.286Z,1.10
2023-04-11T13:07:22.687Z,0.57
2023-04-11T13:09:50.450Z,0.80
2023-04-11T13:12:17.737Z,0.50
2023-04-11T13:14:44.989Z,0.85
2023-04-11T13:17:12.291Z,0.60
2023-04-11T13:19:39.510Z,0.70
2023-04-11T13:22:06.808Z,0.75
2023-04-11T13:24:34.091Z,0.50
2023-04-11T13:27:01.696Z,0.60
2023-04-11T13:29:28.954Z,0.50
2023-04-11T13:31:59.327Z,0.60
2023-04-11T13:34:26.692Z,0.55
2023-04-11T13:36:54.375Z,0.70
2023-04-11T13:39:21.851Z,0.80
2023-04-11T13:41:49.095Z,0.68
2023-04-11T13:44:16.375Z,0.65
2023-04-11T13:46:43.595Z,0.60
2023-04-11T13:49:10.784Z,0.70
2023-04-11T13:51:38.151Z,0.70
2023-04-11T13:54:05.509Z,0.70
2023-04-11T13:56:32.748Z,0.60
2023-04-11T13:58:59.958Z,0.60
2023-04-11T14:01:27.287Z,0.57
2023-04-11T14:03:54.723Z,0.80
2023-04-11T14:06:22.503Z,0.57
2023-04-11T14:08:50.995Z,0.77
2023-04-11T14:11:18.601Z,0.80
2023-04-11T14:13:45.936Z,0.70
2023-04-11T14:16:13.319Z,0.80
2023-04-11T14:18:40.703Z,0.85
2023-04-11T14:21:08.280Z,0.73
2023-04-11T14:23:35.929Z,1.17
2023-04-11T14:26:03.208Z,1.05
2023-04-11T14:28:30.684Z,0.73
2023-04-11T14:30:57.966Z,0.90
2023-04-11T14:33:25.453Z,1.17
2023-04-11T14:35:52.711Z,0.98
2023-04-11T14:38:19.976Z,0.63
2023-04-11T14:40:47.338Z,0.80
2023-04-11T14:43:14.627Z,1.00
2023-04-11T14:45:41.988Z,1.00
2023-04-11T14:48:09.309Z,1.25
2023-04-11T14:50:36.556Z,0.85
2023-04-11T14:53:03.748Z,0.95
2023-04-11T14:55:31.230Z,0.65
2023-04-11T14:57:58.438Z,0.90
2023-04-11T15:00:26.035Z,1.10
2023-04-11T15:02:54.261Z,0.90
2023-04-11T15:05:22.535Z,1.00
2023-04-11T15:07:51.531Z,0.95
2023-04-11T15:10:22.883Z,0.82
2023-04-11T15:12:50.274Z,1.00
2023-04-11T15:15:17.568Z,1.92
2023-04-11T15:17:46.923Z,1.00
2023-04-11T15:20:14.636Z,0.75
2023-04-11T15:22:46.598Z,0.70
2023-04-11T15:25:14.765Z,0.80
2023-04-11T15:27:42.731Z,0.68
2023-04-11T15:30:11.330Z,0.93
2023-04-11T15:32:43.371Z,0.95
2023-04-11T15:35:10.835Z,0.95
2023-04-11T15:37:38.118Z,0.80
2023-04-11T15:40:06.256Z,0.70
2023-04-11T15:42:35.451Z,0.68
2023-04-11T15:45:02.979Z,0.77
2023-04-11T15:47:30.450Z,0.60
2023-04-11T15:49:59.878Z,0.90
2023-04-11T15:52:27.170Z,0.80
2023-04-11T15:54:54.400Z,0.80
2023-04-11T15:57:21.630Z,0.77
2023-04-11T15:59:49.074Z,1.17
2023-04-11T16:02:16.633Z,1.00
2023-04-11T16:04:47.306Z,1.20
2023-04-11T16:07:18.531Z,1.35
2023-04-11T16:09:46.749Z,1.08
2023-04-11T16:12:14.333Z,1.00
2023-04-11T16:14:41.718Z,0.90
2023-04-11T16:17:08.973Z,1.10
2023-04-11T16:19:36.248Z,1.15
2023-04-11T16:22:03.539Z,1.00
2023-04-11T16:24:31.179Z,0.93
2023-04-11T16:26:58.475Z,0.90
2023-04-11T16:29:25.848Z,0.80
2023-04-11T16:31:53.108Z,1.35
2023-04-11T16:34:20.465Z,1.23
2023-04-11T16:36:47.827Z,0.77
2023-04-11T16:39:15.016Z,0.80
2023-04-11T16:41:42.269Z,0.88
2023-04-11T16:44:13.273Z,0.88
2023-04-11T16:46:43.944Z,0.80
2023-04-11T16:49:11.236Z,0.80
2023-04-11T16:51:38.493Z,0.82
2023-04-11T16:54:10.199Z,0.80
2023-04-11T16:56:37.978Z,0.65
2023-04-11T16:59:05.538Z,0.80
2023-04-11T17:01:32.873Z,1.20
2023-04-11T17:04:01.467Z,0.90
2023-04-11T17:06:29.147Z,0.80
2023-04-11T17:08:57.614Z,0.90
2023-04-11T17:11:25.250Z,0.80
2023-04-11T17:13:54.681Z,0.65
2023-04-11T17:16:22.289Z,0.73
2023-04-11T17:18:49.801Z,0.80
2023-04-11T17:21:17.206Z,0.60
2023-04-11T17:23:44.659Z,0.77
2023-04-11T17:26:12.566Z,0.73
2023-04-11T17:28:40.835Z,0.73
2023-04-11T17:31:12.945Z,0.60
2023-04-11T17:33:40.373Z,0.60
2023-04-11T17:36:08.268Z,1.00
2023-04-11T17:38:35.945Z,0.70
2023-04-11T17:41:13.780Z,0.77
2023-04-11T17:43:42.658Z,0.90
2023-04-11T17:46:10.105Z,0.65
2023-04-11T17:48:37.765Z,0.47
2023-04-11T17:51:05.625Z,0.73
2023-04-11T17:53:33.465Z,0.77
2023-04-11T17:56:07.636Z,0.50
2023-04-11T17:58:35.528Z,1.02
2023-04-11T18:01:05.724Z,0.50
2023-04-11T18:03:35.177Z,0.60
2023-04-11T18:06:02.922Z,0.70
2023-04-11T18:08:39.204Z,1.20
2023-04-11T18:11:11.249Z,0.80
2023-04-11T18:13:38.445Z,0.70
2023-04-11T18:16:05.862Z,0.73
2023-04-11T18:18:33.140Z,0.60
2023-04-11T18:21:05.780Z,0.50
2023-04-11T18:23:34.710Z,0.50
2023-04-11T18:26:02.011Z,0.80
2023-04-11T18:28:29.720Z,0.70
2023-04-11T18:30:57.100Z,0.80
2023-04-11T18:33:24.449Z,1.13
2023-04-11T18:35:51.989Z,0.50
2023-04-11T18:38:19.493Z,0.60
2023-04-11T18:40:47.459Z,0.50
2023-04-11T18:43:15.799Z,0.80
2023-04-11T18:45:43.742Z,0.77
2023-04-11T18:48:12.214Z,0.75
2023-04-11T18:50:42.952Z,0.60
2023-04-11T18:53:13.793Z,0.60
2023-04-11T18:55:41.594Z,0.70
2023-04-11T18:58:11.262Z,0.70
2023-04-11T19:00:39.748Z,0.50
2023-04-11T19:03:15.359Z,0.55
2023-04-11T19:05:44.709Z,0.38
2023-04-11T19:08:12.563Z,1.20
2023-04-11T19:10:39.990Z,0.80
2023-04-11T19:13:07.630Z,0.60
2023-04-11T19:15:35.143Z,0.50
2023-04-11T19:18:02.566Z,0.60
2023-04-11T19:20:29.925Z,0.60
2023-04-11T19:22:57.311Z,0.60
2023-04-11T19:25:24.994Z,0.60
2023-04-11T19:27:52.404Z,0.65
2023-04-11T19:30:19.728Z,0.60
2023-04-11T19:32:47.776Z,0.68
2023-04-11T19:35:15.427Z,1.80
2023-04-11T19:37:42.854Z,0.43
2023-04-11T19:40:16.739Z,0.80
2023-04-11T19:42:45.379Z,0.60
2023-04-11T19:45:12.804Z,0.40
2023-04-11T19:47:42.834Z,0.50
2023-04-11T19:50:13.900Z,0.43
2023-04-11T19:52:41.766Z,0.50
2023-04-11T19:55:12.608Z,0.40
2023-04-11T19:57:40.922Z,0.40
2023-04-11T20:00:12.267Z,0.60
2023-04-11T20:02:44.525Z,0.80
2023-04-11T20:05:12.683Z,0.60
2023-04-11T20:07:40.351Z,0.40
2023-04-11T20:10:08.160Z,0.50
2023-04-11T20:12:35.753Z,0.40
2023-04-11T20:15:03.314Z,0.40
2023-04-11T20:17:30.809Z,0.40
2023-04-11T20:19:58.091Z,0.60
2023-04-11T20:22:25.873Z,0.63
2023-04-11T20:24:53.147Z,0.50
2023-04-11T20:27:20.672Z,0.35
2023-04-11T20:29:49.848Z,0.35
2023-04-11T20:32:17.160Z,0.25
2023-04-11T20:34:44.390Z,0.15
2023-04-11T20:37:13.065Z,0.47
2023-04-11T20:39:40.313Z,0.30
2023-04-11T20:42:10.776Z,0.20
2023-04-11T20:44:38.108Z,0.30
2023-04-11T20:47:05.589Z,0.25
2023-04-11T20:49:32.849Z,0.45
2023-04-11T20:52:00.143Z,0.32
2023-04-11T20:54:27.789Z,0.30
2023-04-11T20:56:55.858Z,0.55
2023-04-11T20:59:23.187Z,0.60
2023-04-11T21:01:50.538Z,0.57
2023-04-11T21:04:18.811Z,0.70
2023-04-11T21:06:46.477Z,0.43
2023-04-11T21:09:13.725Z,0.60
2023-04-11T21:11:41.105Z,0.75
2023-04-11T21:14:08.301Z,0.50
2023-04-11T21:16:35.737Z,0.60
2023-04-11T21:19:02.988Z,0.80
2023-04-11T21:21:31.135Z,0.68
2023-04-11T21:23:58.614Z,0.77
2023-04-11T21:26:26.246Z,1.05
2023-04-11T21:28:53.448Z,0.80
2023-04-11T21:31:20.718Z,0.60
2023-04-11T21:33:48.021Z,0.80
2023-04-11T21:36:15.349Z,0.85
2023-04-11T21:38:42.635Z,1.23
2023-04-11T21:41:09.844Z,0.85
2023-04-11T21:43:37.085Z,0.68
2023-04-11T21:46:04.353Z,0.70
2023-04-11T21:48:31.570Z,0.75
2023-04-11T21:50:58.986Z,0.57
2023-04-11T21:53:26.209Z,0.85
2023-04-11T21:55:53.495Z,0.68
2023-04-11T21:58:29.032Z,0.40
2023-04-11T22:00:56.995Z,0.50
2023-04-11T22:03:24.627Z,0.50
2023-04-11T22:05:53.353Z,0.43
2023-04-11T22:08:22.496Z,0.50
2023-04-11T22:10:50.896Z,0.60
2023-04-11T22:13:19.469Z,0.60
2023-04-11T22:15:48.928Z,0.50
2023-04-11T22:18:16.348Z,0.50
2023-04-11T22:20:44.357Z,0.50
2023-04-11T22:23:12.768Z,0.50
2023-04-11T22:25:43.349Z,0.47
2023-04-11T22:28:14.029Z,0.50
2023-04-11T22:30:41.309Z,0.63
2023-04-11T22:33:08.983Z,0.60
2023-04-11T22:35:36.269Z,0.68
2023-04-11T22:38:03.863Z,0.60
2023-04-11T22:40:31.224Z,0.70
2023-04-11T22:42:58.446Z,0.50
2023-04-11T22:45:26.074Z,0.60
2023-04-11T22:47:59.978Z,0.80
2023-04-11T22:50:27.362Z,0.60
2023-04-11T22:52:54.967Z,0.70
2023-04-11T22:55:24.766Z,0.63
2023-04-11T22:57:52.134Z,0.65
2023-04-11T23:00:19.664Z,1.10
2023-04-11T23:02:47.186Z,0.82
2023-04-11T23:05:14.697Z,0.60
2023-04-11T23:07:42.374Z,0.50
2023-04-11T23:10:11.800Z,0.65
2023-04-11T23:12:39.054Z,0.65
2023-04-11T23:15:06.563Z,0.63
2023-04-11T23:17:34.179Z,0.65
2023-04-11T23:20:01.616Z,0.70
2023-04-11T23:22:28.913Z,0.70
2023-04-11T23:24:56.188Z,1.08
2023-04-11T23:27:23.549Z,0.70
2023-04-11T23:29:52.916Z,0.82
2023-04-11T23:32:20.425Z,0.80
2023-04-11T23:34:47.643Z,1.65
2023-04-11T23:37:14.851Z,1.00
2023-04-11T23:39:42.148Z,0.80
2023-04-11T23:42:09.396Z,0.80
2023-04-11T23:44:36.673Z,0.60
2023-04-11T23:47:03.870Z,0.80
2023-04-11T23:49:31.321Z,0.80
2023-04-11T23:51:58.582Z,0.82
2023-04-11T23:54:30.391Z,1.08
2023-04-11T23:56:58.481Z,0.80
2023-04-11T23:59:25.771Z,0.88
